Terminal Aerodrome Forecast
Issued by NWS

Home | Current Version | Previous Version | Text Only | Print | Product List | Glossary On
Versions: 1 2 3 4 5 6 7 8 9 10 11 12
000
FTUS46 KPDT 011100
TAFPSC
TAF
KPSC 011124Z 0112/0212 VRB05KT 6SM -SHRA BR BKN035 OVC050
     FM012100 27011KT P6SM SCT040 BKN120
     FM020200 26007KT P6SM SCT150
     FM021000 VRB03KT P6SM FEW030 SCT050 SCT150=

USA.gov is the U.S. government's official web portal to all federal, state and local government web resources and services.